createdAt,value
2023-03-12T00:00:06.139Z,18
2023-03-12T00:01:22.271Z,17.9
2023-03-12T00:02:38.411Z,17.9
2023-03-12T00:03:54.554Z,17.9
2023-03-12T00:05:10.742Z,17.9
2023-03-12T00:06:25.987Z,17.9
2023-03-12T00:07:41.188Z,17.9
2023-03-12T00:08:57.322Z,17.9
2023-03-12T00:10:13.465Z,17.9
2023-03-12T00:11:29.597Z,17.9
2023-03-12T00:12:45.731Z,17.9
2023-03-12T00:14:01.879Z,17.9
2023-03-12T00:15:18.009Z,17.9
2023-03-12T00:16:34.143Z,17.9
2023-03-12T00:17:50.272Z,18
2023-03-12T00:19:06.418Z,18
2023-03-12T00:20:22.562Z,18
2023-03-12T00:21:38.702Z,18
2023-03-12T00:22:54.828Z,18
2023-03-12T00:24:10.969Z,18
2023-03-12T00:25:27.095Z,18
2023-03-12T00:26:43.251Z,17.9
2023-03-12T00:27:59.381Z,17.9
2023-03-12T00:29:15.503Z,17.9
2023-03-12T00:30:31.639Z,17.9
2023-03-12T00:31:47.778Z,17.9
2023-03-12T00:33:03.936Z,17.9
2023-03-12T00:34:20.066Z,17.9
2023-03-12T00:35:36.202Z,17.9
2023-03-12T00:36:52.320Z,18
2023-03-12T00:38:08.461Z,18
2023-03-12T00:39:24.666Z,18
2023-03-12T00:40:39.903Z,18
2023-03-12T00:41:55.107Z,18
2023-03-12T00:43:11.251Z,18
2023-03-12T00:44:27.395Z,18
2023-03-12T00:45:43.516Z,18
2023-03-12T00:46:59.665Z,18
2023-03-12T00:48:15.800Z,18
2023-03-12T00:49:31.939Z,18
2023-03-12T00:50:48.079Z,18
2023-03-12T00:52:04.200Z,18
2023-03-12T00:53:20.337Z,18
2023-03-12T00:54:36.472Z,18
2023-03-12T00:55:52.611Z,18.1
2023-03-12T00:57:08.765Z,18.1
2023-03-12T00:58:24.891Z,18.1
2023-03-12T00:59:41.028Z,18.1
2023-03-12T01:00:57.149Z,18
2023-03-12T01:02:13.294Z,18
2023-03-12T01:03:29.442Z,18
2023-03-12T01:04:45.564Z,18.1
2023-03-12T01:06:01.697Z,18.1
2023-03-12T01:07:17.829Z,18
2023-03-12T01:08:33.983Z,18
2023-03-12T01:09:50.117Z,18
2023-03-12T01:11:06.256Z,18
2023-03-12T01:12:22.396Z,18
2023-03-12T01:13:38.586Z,17.9
2023-03-12T01:14:53.818Z,17.9
2023-03-12T01:16:10.009Z,17.9
2023-03-12T01:17:25.000Z,17.9
2023-03-12T01:18:41.356Z,17.9
2023-03-12T01:19:57.491Z,17.9
2023-03-12T01:21:13.634Z,17.9
2023-03-12T01:22:29.766Z,17.9
2023-03-12T01:23:45.899Z,17.9
2023-03-12T01:25:02.040Z,17.9
2023-03-12T01:26:18.174Z,17.9
2023-03-12T01:27:34.302Z,17.9
2023-03-12T01:28:50.447Z,17.9
2023-03-12T01:30:06.565Z,17.9
2023-03-12T01:31:22.730Z,17.9
2023-03-12T01:32:38.855Z,17.9
2023-03-12T01:33:54.993Z,17.9
2023-03-12T01:35:11.120Z,17.9
2023-03-12T01:36:27.256Z,17.9
2023-03-12T01:37:43.400Z,17.9
2023-03-12T01:38:59.534Z,17.9
2023-03-12T01:40:15.676Z,17.9
2023-03-12T01:41:31.807Z,17.9
2023-03-12T01:42:47.937Z,17.8
2023-03-12T01:44:04.096Z,17.8
2023-03-12T01:45:20.228Z,17.8
2023-03-12T01:46:36.362Z,17.8
2023-03-12T01:47:52.479Z,17.8
2023-03-12T01:49:08.680Z,17.8
2023-03-12T01:50:23.927Z,17.8
2023-03-12T01:51:39.132Z,17.8
2023-03-12T01:52:54.270Z,17.8
2023-03-12T01:54:10.405Z,17.8
2023-03-12T01:55:26.542Z,17.8
2023-03-12T01:56:42.686Z,17.8
2023-03-12T01:57:58.813Z,17.8
2023-03-12T01:59:14.954Z,17.8
2023-03-12T02:00:31.094Z,17.9
2023-03-12T02:01:47.228Z,17.9
2023-03-12T02:03:03.351Z,17.8
2023-03-12T02:04:19.501Z,17.8
2023-03-12T02:05:35.633Z,17.8
2023-03-12T02:06:51.767Z,17.8
2023-03-12T02:08:07.913Z,17.8
2023-03-12T02:09:24.033Z,17.8
2023-03-12T02:10:40.171Z,17.8
2023-03-12T02:11:56.331Z,17.8
2023-03-12T02:13:12.452Z,17.8
2023-03-12T02:14:28.598Z,17.8
2023-03-12T02:15:44.718Z,17.9
2023-03-12T02:17:00.849Z,17.8
2023-03-12T02:18:17.002Z,17.8
2023-03-12T02:19:33.147Z,17.8
2023-03-12T02:20:49.277Z,17.8
2023-03-12T02:22:05.000Z,17.8
2023-03-12T02:23:21.534Z,17.8
2023-03-12T02:24:37.690Z,17.8
2023-03-12T02:25:53.828Z,17.8
2023-03-12T02:27:09.950Z,17.8
2023-03-12T02:28:26.084Z,17.8
2023-03-12T02:29:42.230Z,17.8
2023-03-12T02:30:58.368Z,17.8
2023-03-12T02:32:14.506Z,17.8
2023-03-12T02:33:30.633Z,17.8
2023-03-12T02:34:46.762Z,17.8
2023-03-12T02:36:02.901Z,17.8
2023-03-12T02:37:19.045Z,17.8
2023-03-12T02:38:35.185Z,17.8
2023-03-12T02:39:51.368Z,17.8
2023-03-12T02:41:06.634Z,17.8
2023-03-12T02:42:21.838Z,17.8
2023-03-12T02:43:37.968Z,17.8
2023-03-12T02:44:54.102Z,17.8
2023-03-12T02:46:10.248Z,17.7
2023-03-12T02:47:26.000Z,17.7
2023-03-12T02:48:42.530Z,17.7
2023-03-12T02:49:58.666Z,17.7
2023-03-12T02:51:14.791Z,17.7
2023-03-12T02:52:30.917Z,17.7
2023-03-12T02:53:47.069Z,17.7
2023-03-12T02:55:03.206Z,17.7
2023-03-12T02:56:19.345Z,17.7
2023-03-12T02:57:35.467Z,17.8
2023-03-12T02:58:51.610Z,17.7
2023-03-12T03:00:07.762Z,17.7
2023-03-12T03:01:23.899Z,17.8
2023-03-12T03:02:40.030Z,17.7
2023-03-12T03:03:56.151Z,17.8
2023-03-12T03:05:12.292Z,17.8
2023-03-12T03:06:28.440Z,17.8
2023-03-12T03:07:44.565Z,17.7
2023-03-12T03:09:00.697Z,17.8
2023-03-12T03:10:16.844Z,17.8
2023-03-12T03:11:32.970Z,17.8
2023-03-12T03:12:49.118Z,17.8
2023-03-12T03:14:05.312Z,17.8
2023-03-12T03:15:20.546Z,17.8
2023-03-12T03:16:35.753Z,17.8
2023-03-12T03:17:51.896Z,17.7
2023-03-12T03:19:08.029Z,17.8
2023-03-12T03:20:24.157Z,17.8
2023-03-12T03:21:40.292Z,17.8
2023-03-12T03:22:56.441Z,17.8
2023-03-12T03:24:12.578Z,17.8
2023-03-12T03:25:28.700Z,17.8
2023-03-12T03:26:44.847Z,17.8
2023-03-12T03:28:00.986Z,17.8
2023-03-12T03:29:17.123Z,17.8
2023-03-12T03:30:33.262Z,17.8
2023-03-12T03:31:49.385Z,17.8
2023-03-12T03:33:05.520Z,17.8
2023-03-12T03:34:21.660Z,17.7
2023-03-12T03:35:37.816Z,17.8
2023-03-12T03:36:53.948Z,17.8
2023-03-12T03:38:10.069Z,17.8
2023-03-12T03:39:26.203Z,17.8
2023-03-12T03:40:42.334Z,17.7
2023-03-12T03:41:58.482Z,17.7
2023-03-12T03:43:14.626Z,17.7
2023-03-12T03:44:30.752Z,17.8
2023-03-12T03:45:46.885Z,17.8
2023-03-12T03:47:03.017Z,17.8
2023-03-12T03:48:19.224Z,17.8
2023-03-12T03:49:34.472Z,17.8
2023-03-12T03:50:50.658Z,17.8
2023-03-12T03:52:05.871Z,17.8
2023-03-12T03:53:22.006Z,17.8
2023-03-12T03:54:38.124Z,17.8
2023-03-12T03:55:54.267Z,17.8
2023-03-12T03:57:10.409Z,17.8
2023-03-12T03:58:26.552Z,17.8
2023-03-12T03:59:42.685Z,17.8
2023-03-12T04:00:58.824Z,17.8
2023-03-12T04:02:14.954Z,17.7
2023-03-12T04:03:31.077Z,17.7
2023-03-12T04:04:47.224Z,17.7
2023-03-12T04:06:03.361Z,17.7
2023-03-12T04:07:19.499Z,17.7
2023-03-12T04:08:35.636Z,17.7
2023-03-12T04:09:51.758Z,17.7
2023-03-12T04:11:07.914Z,17.7
2023-03-12T04:12:24.048Z,17.7
2023-03-12T04:13:40.174Z,17.7
2023-03-12T04:14:56.323Z,17.7
2023-03-12T04:16:12.442Z,17.6
2023-03-12T04:17:28.589Z,17.6
2023-03-12T04:18:44.733Z,17.6
2023-03-12T04:20:00.870Z,17.6
2023-03-12T04:21:17.004Z,17.6
2023-03-12T04:22:33.121Z,17.6
2023-03-12T04:23:49.346Z,17.6
2023-03-12T04:25:04.572Z,17.6
2023-03-12T04:26:19.791Z,17.6
2023-03-12T04:27:35.925Z,17.6
2023-03-12T04:28:52.051Z,17.6
2023-03-12T04:30:08.194Z,17.7
2023-03-12T04:31:24.322Z,17.7
2023-03-12T04:32:40.456Z,17.7
2023-03-12T04:33:56.613Z,17.7
2023-03-12T04:35:12.733Z,17.7
2023-03-12T04:36:28.883Z,17.7
2023-03-12T04:37:45.010Z,17.7
2023-03-12T04:39:01.136Z,17.7
2023-03-12T04:40:17.297Z,17.7
2023-03-12T04:41:33.423Z,17.7
2023-03-12T04:42:49.564Z,17.7
2023-03-12T04:44:05.697Z,17.7
2023-03-12T04:45:21.818Z,17.7
2023-03-12T04:46:37.979Z,17.7
2023-03-12T04:47:54.104Z,17.7
2023-03-12T04:49:10.234Z,17.7
2023-03-12T04:50:26.377Z,17.7
2023-03-12T04:51:42.510Z,17.7
2023-03-12T04:52:58.659Z,17.7
2023-03-12T04:54:14.778Z,17.7
2023-03-12T04:55:30.916Z,17.7
2023-03-12T04:56:47.046Z,17.6
2023-03-12T04:58:03.251Z,17.7
2023-03-12T04:59:18.487Z,17.6
2023-03-12T05:00:33.686Z,17.6
2023-03-12T05:01:48.846Z,17.7
2023-03-12T05:03:04.969Z,17.7
2023-03-12T05:04:21.108Z,17.6
2023-03-12T05:05:37.238Z,17.7
2023-03-12T05:06:53.369Z,17.7
2023-03-12T05:08:09.535Z,17.6
2023-03-12T05:09:25.663Z,17.6
2023-03-12T05:10:41.801Z,17.6
2023-03-12T05:11:57.924Z,17.7
2023-03-12T05:13:14.057Z,17.7
2023-03-12T05:14:30.213Z,17.7
2023-03-12T05:15:46.346Z,17.6
2023-03-12T05:17:02.472Z,17.6
2023-03-12T05:18:18.613Z,17.7
2023-03-12T05:19:34.734Z,17.7
2023-03-12T05:20:50.889Z,17.7
2023-03-12T05:22:07.031Z,17.7
2023-03-12T05:23:23.167Z,17.6
2023-03-12T05:24:39.287Z,17.6
2023-03-12T05:25:55.431Z,17.6
2023-03-12T05:27:11.563Z,17.6
2023-03-12T05:28:27.710Z,17.6
2023-03-12T05:29:43.840Z,17.6
2023-03-12T05:30:59.978Z,17.6
2023-03-12T05:32:16.110Z,17.6
2023-03-12T05:33:32.246Z,17.6
2023-03-12T05:34:48.389Z,17.6
2023-03-12T05:36:04.526Z,17.6
2023-03-12T05:37:20.653Z,17.6
2023-03-12T05:38:36.793Z,17.6
2023-03-12T05:39:52.945Z,17.6
2023-03-12T05:41:09.068Z,17.6
2023-03-12T05:42:25.211Z,17.6
2023-03-12T05:43:41.328Z,17.6
2023-03-12T05:44:57.478Z,17.6
2023-03-12T05:46:13.612Z,17.6
2023-03-12T05:48:45.935Z,17.7
2023-03-12T05:50:01.182Z,17.6
2023-03-12T05:51:16.391Z,17.7
2023-03-12T05:52:32.518Z,17.7
2023-03-12T05:53:48.653Z,17.7
2023-03-12T05:55:04.786Z,17.7
2023-03-12T05:56:20.938Z,17.7
2023-03-12T05:57:37.077Z,17.7
2023-03-12T05:58:53.209Z,17.7
2023-03-12T06:00:09.331Z,17.7
2023-03-12T06:01:25.464Z,17.7
2023-03-12T06:02:41.626Z,17.7
2023-03-12T06:03:57.744Z,17.7
2023-03-12T06:05:13.891Z,17.7
2023-03-12T06:06:30.012Z,17.7
2023-03-12T06:07:46.159Z,17.7
2023-03-12T06:09:02.295Z,17.7
2023-03-12T06:10:18.429Z,17.7
2023-03-12T06:11:34.574Z,17.8
2023-03-12T06:12:50.697Z,17.8
2023-03-12T06:14:06.845Z,17.8
2023-03-12T06:15:22.985Z,17.8
2023-03-12T06:16:39.124Z,17.8
2023-03-12T06:17:55.243Z,17.8
2023-03-12T06:19:11.391Z,17.8
2023-03-12T06:20:27.511Z,17.7
2023-03-12T06:21:43.669Z,17.7
2023-03-12T06:22:59.868Z,17.7
2023-03-12T06:24:15.096Z,17.7
2023-03-12T06:25:31.286Z,17.8
2023-03-12T06:26:46.497Z,17.8
2023-03-12T06:28:02.626Z,17.8
2023-03-12T06:29:18.775Z,17.8
2023-03-12T06:30:34.888Z,17.8
2023-03-12T06:31:51.051Z,17.8
2023-03-12T06:33:07.190Z,17.9
2023-03-12T06:34:23.304Z,17.9
2023-03-12T06:35:39.453Z,17.8
2023-03-12T06:36:55.587Z,17.8
2023-03-12T06:38:11.723Z,17.8
2023-03-12T06:39:27.855Z,17.8
2023-03-12T06:40:43.999Z,17.8
2023-03-12T06:42:00.126Z,17.8
2023-03-12T06:43:16.256Z,17.9
2023-03-12T06:44:32.410Z,17.9
2023-03-12T06:45:48.548Z,17.9
2023-03-12T06:47:04.676Z,17.9
2023-03-12T06:48:20.808Z,17.9
2023-03-12T06:49:36.947Z,17.9
2023-03-12T06:50:53.092Z,17.9
2023-03-12T06:52:09.232Z,17.9
2023-03-12T06:53:25.371Z,18
2023-03-12T06:54:41.504Z,18
2023-03-12T06:55:57.632Z,18
2023-03-12T06:57:13.773Z,18
2023-03-12T06:58:29.978Z,18
2023-03-12T06:59:45.226Z,18
2023-03-12T07:01:00.426Z,18
2023-03-12T07:02:16.576Z,18
2023-03-12T07:03:32.708Z,18
2023-03-12T07:04:48.834Z,18
2023-03-12T07:06:04.976Z,18.1
2023-03-12T07:07:21.111Z,18.1
2023-03-12T07:08:37.262Z,18.1
2023-03-12T07:09:53.377Z,18.1
2023-03-12T07:11:09.519Z,18.2
2023-03-12T07:12:25.664Z,18.2
2023-03-12T07:13:41.801Z,18.3
2023-03-12T07:14:57.942Z,18.3
2023-03-12T07:16:14.078Z,18.3
2023-03-12T07:17:30.200Z,18.4
2023-03-12T07:18:46.326Z,18.4
2023-03-12T07:20:02.485Z,18.4
2023-03-12T07:21:18.625Z,18.4
2023-03-12T07:22:34.745Z,18.4
2023-03-12T07:23:50.882Z,18.4
2023-03-12T07:25:07.022Z,18.4
2023-03-12T07:26:23.161Z,18.4
2023-03-12T07:27:39.296Z,18.4
2023-03-12T07:28:55.436Z,18.4
2023-03-12T07:30:11.557Z,18.4
2023-03-12T07:31:27.698Z,18.4
2023-03-12T07:32:43.896Z,18.5
2023-03-12T07:35:15.332Z,18.5
2023-03-12T07:36:30.531Z,18.5
2023-03-12T07:37:46.669Z,18.6
2023-03-12T07:39:02.808Z,18.6
2023-03-12T07:40:18.944Z,18.6
2023-03-12T07:41:35.072Z,18.6
2023-03-12T07:42:51.212Z,18.7
2023-03-12T07:44:07.352Z,18.7
2023-03-12T07:45:23.484Z,18.7
2023-03-12T07:46:39.608Z,18.7
2023-03-12T07:47:55.756Z,18.7
2023-03-12T07:49:11.891Z,18.7
2023-03-12T07:50:28.035Z,18.8
2023-03-12T07:51:44.154Z,18.7
2023-03-12T07:53:00.287Z,18.8
2023-03-12T07:54:16.424Z,18.8
2023-03-12T07:55:32.578Z,18.8
2023-03-12T07:56:48.703Z,18.8
2023-03-12T07:58:04.845Z,18.9
2023-03-12T07:59:20.983Z,19
2023-03-12T08:00:37.113Z,19
2023-03-12T08:01:53.250Z,19
2023-03-12T08:03:09.395Z,19
2023-03-12T08:04:25.518Z,19
2023-03-12T08:05:41.653Z,19
2023-03-12T08:08:14.004Z,19.1
2023-03-12T08:09:29.240Z,19.1
2023-03-12T08:10:44.451Z,19.1
2023-03-12T08:12:00.592Z,19.1
2023-03-12T08:13:16.707Z,19.1
2023-03-12T08:14:32.858Z,19.1
2023-03-12T08:15:48.984Z,19.1
2023-03-12T08:17:05.126Z,19.1
2023-03-12T08:18:21.264Z,19.1
2023-03-12T08:19:37.401Z,19.1
2023-03-12T08:20:53.529Z,19.1
2023-03-12T08:22:09.659Z,19.2
2023-03-12T08:23:25.000Z,19.2
2023-03-12T08:24:41.940Z,19.2
2023-03-12T08:25:58.082Z,19.2
2023-03-12T08:27:14.203Z,19.3
2023-03-12T08:28:30.333Z,19.4
2023-03-12T08:29:46.470Z,19.5
2023-03-12T08:31:02.632Z,19.5
2023-03-12T08:32:18.763Z,19.6
2023-03-12T08:33:34.885Z,19.7
2023-03-12T08:34:51.025Z,19.9
2023-03-12T08:36:07.147Z,20.1
2023-03-12T08:37:23.306Z,20.4
2023-03-12T08:38:39.427Z,20.7
2023-03-12T08:39:55.577Z,21
2023-03-12T08:41:11.706Z,21.3
2023-03-12T08:42:27.895Z,21.5
2023-03-12T08:43:43.142Z,21.5
2023-03-12T08:44:58.349Z,21.5
2023-03-12T08:46:14.480Z,21.4
2023-03-12T08:47:30.631Z,21.3
2023-03-12T08:48:46.754Z,21.3
2023-03-12T08:50:02.886Z,21.3
2023-03-12T08:51:19.032Z,21.3
2023-03-12T08:52:35.164Z,21.2
2023-03-12T08:53:51.295Z,21.2
2023-03-12T08:55:07.444Z,21.3
2023-03-12T08:56:23.576Z,21.3
2023-03-12T08:57:39.699Z,21.3
2023-03-12T08:58:55.837Z,21.4
2023-03-12T09:00:11.979Z,21.3
2023-03-12T09:01:28.115Z,21.3
2023-03-12T09:02:44.252Z,21.3
2023-03-12T09:04:00.391Z,21.3
2023-03-12T09:05:16.514Z,21.3
2023-03-12T09:06:32.659Z,21.2
2023-03-12T09:07:48.803Z,21.2
2023-03-12T09:09:04.923Z,21.2
2023-03-12T09:10:21.059Z,21.2
2023-03-12T09:11:37.201Z,21.2
2023-03-12T09:12:53.339Z,21.3
2023-03-12T09:14:09.484Z,21.4
2023-03-12T09:15:25.603Z,21.5
2023-03-12T09:16:41.803Z,21.7
2023-03-12T09:17:57.040Z,21.7
2023-03-12T09:19:12.251Z,21.7
2023-03-12T09:20:27.395Z,21.6
2023-03-12T09:21:43.541Z,21.6
2023-03-12T09:22:59.688Z,21.6
2023-03-12T09:24:15.807Z,21.6
2023-03-12T09:25:31.956Z,21.6
2023-03-12T09:26:48.090Z,21.6
2023-03-12T09:28:04.229Z,21.7
2023-03-12T09:29:20.355Z,21.7
2023-03-12T09:30:36.491Z,21.7
2023-03-12T09:31:52.626Z,21.7
2023-03-12T09:33:08.764Z,21.6
2023-03-12T09:34:24.913Z,21.5
2023-03-12T09:35:41.053Z,21.5
2023-03-12T09:36:57.185Z,21.5
2023-03-12T09:38:13.302Z,21.5
2023-03-12T09:39:29.450Z,21.5
2023-03-12T09:40:45.597Z,21.5
2023-03-12T09:42:01.721Z,21.6
2023-03-12T09:43:17.870Z,21.7
2023-03-12T09:44:33.984Z,21.8
2023-03-12T09:45:50.134Z,21.9
2023-03-12T09:47:06.278Z,21.9
2023-03-12T09:48:22.399Z,22
2023-03-12T09:49:38.548Z,22
2023-03-12T09:50:54.675Z,22.1
2023-03-12T09:52:10.810Z,22.3
2023-03-12T09:53:26.955Z,22.4
2023-03-12T09:54:43.095Z,22.6
2023-03-12T09:55:59.213Z,22.6
2023-03-12T09:57:15.362Z,22.7
2023-03-12T09:58:31.478Z,22.7
2023-03-12T09:59:47.639Z,22.8
2023-03-12T10:01:03.776Z,22.8
2023-03-12T10:02:19.907Z,22.8
2023-03-12T10:03:36.038Z,22.8
2023-03-12T10:04:52.172Z,22.9
2023-03-12T10:06:08.325Z,23
2023-03-12T10:07:24.517Z,23
2023-03-12T10:08:39.744Z,23.1
2023-03-12T10:09:54.948Z,23.1
2023-03-12T10:11:11.089Z,23.1
2023-03-12T10:12:27.230Z,23
2023-03-12T10:13:43.367Z,22.9
2023-03-12T10:14:59.488Z,22.9
2023-03-12T10:16:15.644Z,22.8
2023-03-12T10:17:31.780Z,22.8
2023-03-12T10:18:47.909Z,22.8
2023-03-12T10:20:04.038Z,22.8
2023-03-12T10:21:20.173Z,22.8
2023-03-12T10:22:36.329Z,22.7
2023-03-12T10:23:52.460Z,22.7
2023-03-12T10:25:08.587Z,22.7
2023-03-12T10:26:24.710Z,22.7
2023-03-12T10:27:40.853Z,22.6
2023-03-12T10:28:57.007Z,22.5
2023-03-12T10:30:13.128Z,22.4
2023-03-12T10:31:29.276Z,22.3
2023-03-12T10:32:45.397Z,22.3
2023-03-12T10:34:01.538Z,22.2
2023-03-12T10:35:17.677Z,22.1
2023-03-12T10:36:33.817Z,22.1
2023-03-12T10:37:49.952Z,22
2023-03-12T10:39:06.081Z,22
2023-03-12T10:40:22.218Z,22.1
2023-03-12T10:41:38.427Z,22.1
2023-03-12T10:42:53.661Z,22.1
2023-03-12T10:44:09.858Z,22.1
2023-03-12T10:45:25.060Z,22.1
2023-03-12T10:46:41.184Z,22.1
2023-03-12T10:47:57.327Z,22.2
2023-03-12T10:49:13.459Z,22.2
2023-03-12T10:50:29.589Z,22.2
2023-03-12T10:51:45.738Z,22.1
2023-03-12T10:53:01.884Z,22.1
2023-03-12T10:54:18.013Z,22.1
2023-03-12T10:55:34.141Z,22
2023-03-12T10:56:50.268Z,22
2023-03-12T10:58:06.426Z,22
2023-03-12T10:59:22.560Z,21.9
2023-03-12T11:00:38.691Z,21.8
2023-03-12T11:01:54.816Z,21.7
2023-03-12T11:03:10.955Z,21.7
2023-03-12T11:04:27.106Z,21.6
2023-03-12T11:05:43.239Z,21.5
2023-03-12T11:06:59.379Z,21.5
2023-03-12T11:08:15.513Z,21.4
2023-03-12T11:09:31.646Z,21.4
2023-03-12T11:10:47.783Z,21.3
2023-03-12T11:12:03.911Z,21.3
2023-03-12T11:13:20.054Z,21.2
2023-03-12T11:14:36.188Z,21.1
2023-03-12T11:15:52.308Z,21.1
2023-03-12T11:17:08.533Z,21
2023-03-12T11:18:23.783Z,21
2023-03-12T11:36:08.768Z,20.6
2023-03-12T11:37:24.904Z,20.6
2023-03-12T11:38:41.034Z,20.6
2023-03-12T11:39:57.174Z,20.5
2023-03-12T11:41:13.315Z,20.5
2023-03-12T11:42:29.448Z,20.5
2023-03-12T11:43:45.568Z,20.4
2023-03-12T11:45:01.716Z,20.4
2023-03-12T11:46:17.865Z,20.3
2023-03-12T11:47:33.996Z,20.3
2023-03-12T11:48:50.128Z,20.3
2023-03-12T11:50:06.247Z,20.2
2023-03-12T11:51:22.443Z,20.2
2023-03-12T11:52:37.696Z,20.2
2023-03-12T11:53:52.903Z,20.2
2023-03-12T11:55:09.029Z,20.1
2023-03-12T11:56:25.176Z,20.1
2023-03-12T11:57:41.309Z,20.1
2023-03-12T11:58:57.441Z,20.1
2023-03-12T12:01:29.702Z,20
2023-03-12T12:02:45.862Z,20
2023-03-12T12:04:01.999Z,20
2023-03-12T12:05:18.125Z,20
2023-03-12T12:06:34.259Z,20
2023-03-12T12:07:50.390Z,20
2023-03-12T12:09:06.535Z,20
2023-03-12T12:10:22.666Z,20
2023-03-12T12:11:38.811Z,20
2023-03-12T12:12:54.945Z,20
2023-03-12T12:14:11.072Z,20
2023-03-12T12:15:27.223Z,20
2023-03-12T12:16:43.362Z,20
2023-03-12T12:17:59.486Z,20
2023-03-12T12:19:15.629Z,19.9
2023-03-12T12:20:31.743Z,19.9
2023-03-12T12:21:47.907Z,19.9
2023-03-12T12:23:04.036Z,19.9
2023-03-12T12:24:20.171Z,19.9
2023-03-12T12:25:36.364Z,19.9
2023-03-12T12:26:51.592Z,19.9
2023-03-12T12:28:07.782Z,19.9
2023-03-12T12:29:23.005Z,20
2023-03-12T12:30:39.135Z,20
2023-03-12T12:31:55.287Z,20
2023-03-12T12:33:11.404Z,20
2023-03-12T12:34:27.550Z,20
2023-03-12T12:35:43.681Z,19.9
2023-03-12T12:36:59.817Z,20
2023-03-12T12:38:15.960Z,20
2023-03-12T12:39:32.091Z,20
2023-03-12T12:40:48.222Z,20
2023-03-12T12:42:04.347Z,20.1
2023-03-12T12:43:20.481Z,20.1
2023-03-12T12:44:36.637Z,20.1
2023-03-12T12:45:52.778Z,20.1
2023-03-12T12:47:08.898Z,20
2023-03-12T12:48:25.041Z,20.1
2023-03-12T12:49:41.180Z,20.1
2023-03-12T12:50:57.320Z,20.2
2023-03-12T12:52:13.453Z,20.2
2023-03-12T12:53:29.576Z,20.2
2023-03-12T12:54:45.723Z,20.2
2023-03-12T12:56:01.852Z,20.2
2023-03-12T12:57:18.005Z,20.3
2023-03-12T12:58:34.123Z,20.3
2023-03-12T12:59:50.267Z,20.3
2023-03-12T13:01:06.459Z,20.2
2023-03-12T13:02:21.694Z,20.2
2023-03-12T13:03:36.914Z,20.2
2023-03-12T13:04:52.049Z,20.2
2023-03-12T13:06:08.194Z,20.2
2023-03-12T13:07:24.341Z,20.2
2023-03-12T13:08:40.461Z,20.2
2023-03-12T13:09:56.598Z,20.2
2023-03-12T13:11:12.733Z,20.2
2023-03-12T13:12:28.874Z,20.2
2023-03-12T13:13:45.021Z,20.1
2023-03-12T13:15:01.148Z,20.1
2023-03-12T13:16:17.278Z,20.1
2023-03-12T13:17:33.417Z,20.1
2023-03-12T13:18:49.561Z,20.1
2023-03-12T13:20:05.695Z,20
2023-03-12T13:21:21.835Z,20
2023-03-12T13:22:37.968Z,20
2023-03-12T13:23:54.095Z,20
2023-03-12T13:25:10.244Z,20
2023-03-12T13:26:26.376Z,20
2023-03-12T13:27:42.499Z,19.9
2023-03-12T13:28:58.637Z,19.9
2023-03-12T13:30:14.775Z,19.9
2023-03-12T13:31:30.931Z,19.8
2023-03-12T13:32:47.051Z,19.8
2023-03-12T13:34:03.194Z,19.8
2023-03-12T13:35:19.322Z,19.8
2023-03-12T13:36:35.452Z,19.8
2023-03-12T13:37:51.605Z,19.8
2023-03-12T13:39:07.738Z,19.8
2023-03-12T13:40:23.868Z,19.8
2023-03-12T13:41:40.001Z,19.8
2023-03-12T13:42:56.145Z,19.8
2023-03-12T13:44:12.291Z,19.8
2023-03-12T13:45:28.408Z,19.8
2023-03-12T13:46:44.552Z,19.8
2023-03-12T13:48:00.687Z,19.7
2023-03-12T13:49:16.816Z,19.7
2023-03-12T13:50:32.972Z,19.7
2023-03-12T13:51:49.165Z,19.7
2023-03-12T13:53:04.403Z,19.7
2023-03-12T13:54:19.610Z,19.7
2023-03-12T13:55:35.727Z,19.6
2023-03-12T13:56:51.868Z,19.6
2023-03-12T13:58:08.005Z,19.6
2023-03-12T13:59:24.124Z,19.6
2023-03-12T14:00:40.279Z,19.6
2023-03-12T14:01:56.406Z,19.6
2023-03-12T14:03:12.544Z,19.6
2023-03-12T14:04:28.682Z,19.6
2023-03-12T14:05:44.809Z,19.6
2023-03-12T14:07:00.971Z,19.6
2023-03-12T14:08:17.094Z,19.6
2023-03-12T14:09:33.226Z,19.5
2023-03-12T14:10:49.356Z,19.6
2023-03-12T14:12:05.489Z,19.6
2023-03-12T14:13:21.640Z,19.5
2023-03-12T14:14:37.770Z,19.6
2023-03-12T14:15:53.901Z,19.5
2023-03-12T14:17:10.049Z,19.5
2023-03-12T14:18:26.165Z,19.5
2023-03-12T14:19:42.316Z,19.5
2023-03-12T14:20:58.447Z,19.4
2023-03-12T14:22:14.593Z,19.4
2023-03-12T14:23:30.712Z,19.4
2023-03-12T14:24:46.848Z,19.4
2023-03-12T14:26:03.058Z,19.4
2023-03-12T14:27:18.307Z,19.4
2023-03-12T14:28:33.505Z,19.5
2023-03-12T14:29:49.642Z,19.5
2023-03-12T14:31:05.783Z,19.5
2023-03-12T14:32:21.922Z,19.5
2023-03-12T14:33:38.053Z,19.5
2023-03-12T14:34:54.190Z,19.5
2023-03-12T14:36:10.323Z,19.4
2023-03-12T14:37:26.466Z,19.4
2023-03-12T14:38:42.600Z,19.4
2023-03-12T14:39:58.736Z,19.3
2023-03-12T14:41:14.857Z,19.3
2023-03-12T14:42:31.013Z,19.3
2023-03-12T14:43:47.133Z,19.3
2023-03-12T14:45:03.266Z,19.3
2023-03-12T14:46:19.399Z,19.3
2023-03-12T14:47:35.543Z,19.3
2023-03-12T14:48:51.688Z,19.3
2023-03-12T14:50:07.828Z,19.3
2023-03-12T14:51:23.960Z,19.2
2023-03-12T14:52:40.087Z,19.2
2023-03-12T14:53:56.211Z,19.2
2023-03-12T14:55:12.364Z,19.2
2023-03-12T14:56:28.494Z,19.2
2023-03-12T14:57:44.624Z,19.2
2023-03-12T14:59:00.769Z,19.2
2023-03-12T15:00:16.949Z,19.3
2023-03-12T15:01:32.195Z,19.3
2023-03-12T15:02:48.386Z,19.3
2023-03-12T15:04:03.587Z,19.2
2023-03-12T15:05:19.732Z,19.2
2023-03-12T15:06:35.864Z,19.2
2023-03-12T15:07:52.011Z,19.2
2023-03-12T15:09:08.137Z,19.2
2023-03-12T15:10:24.276Z,19.2
2023-03-12T15:11:40.419Z,19.2
2023-03-12T15:12:56.555Z,19.3
2023-03-12T15:14:12.678Z,19.3
2023-03-12T15:15:28.813Z,19.3
2023-03-12T15:16:44.941Z,19.3
2023-03-12T15:18:01.100Z,19.3
2023-03-12T15:19:17.220Z,19.3
2023-03-12T15:20:33.360Z,19.3
2023-03-12T15:21:49.487Z,19.2
2023-03-12T15:23:05.631Z,19.2
2023-03-12T15:24:21.782Z,19.2
2023-03-12T15:25:37.908Z,19.2
2023-03-12T15:26:54.031Z,19.2
2023-03-12T15:28:10.167Z,19.2
2023-03-12T15:29:26.310Z,19.2
2023-03-12T15:30:42.460Z,19.2
2023-03-12T15:31:58.588Z,19.2
2023-03-12T15:33:14.722Z,19.2
2023-03-12T15:34:30.848Z,19.2
2023-03-12T15:35:47.037Z,19.2
2023-03-12T15:37:02.300Z,19.2
2023-03-12T15:38:17.513Z,19.2
2023-03-12T15:39:33.635Z,19.2
2023-03-12T15:40:49.799Z,19.2
2023-03-12T15:42:05.924Z,19.2
2023-03-12T15:43:22.063Z,19.2
2023-03-12T15:44:38.192Z,19.2
2023-03-12T15:45:54.331Z,19.2
2023-03-12T15:47:10.462Z,19.2
2023-03-12T15:48:26.613Z,19.2
2023-03-12T15:49:42.726Z,19.2
2023-03-12T15:50:58.867Z,19.2
2023-03-12T15:52:14.996Z,19.2
2023-03-12T15:53:31.150Z,19.2
2023-03-12T15:54:47.279Z,19.2
2023-03-12T15:56:03.419Z,19.2
2023-03-12T15:57:19.552Z,19.1
2023-03-12T15:58:35.672Z,19.1
2023-03-12T15:59:51.819Z,19.1
2023-03-12T16:01:07.953Z,19.1
2023-03-12T16:02:24.095Z,19.1
2023-03-12T16:03:40.233Z,19.1
2023-03-12T16:04:56.362Z,19.1
2023-03-12T16:06:12.498Z,19.1
2023-03-12T16:07:28.640Z,19.1
2023-03-12T16:08:44.767Z,19.1
2023-03-12T16:10:00.960Z,19.1
2023-03-12T16:11:16.206Z,19.1
2023-03-12T16:12:31.418Z,19.1
2023-03-12T16:13:46.562Z,19
2023-03-12T16:15:02.705Z,19
2023-03-12T16:16:18.831Z,19
2023-03-12T16:17:34.974Z,19
2023-03-12T16:18:51.105Z,19
2023-03-12T16:20:07.238Z,19
2023-03-12T16:21:23.381Z,18.9
2023-03-12T16:22:39.522Z,19
2023-03-12T16:23:55.646Z,18.9
2023-03-12T16:25:11.795Z,19
2023-03-12T16:26:27.912Z,18.9
2023-03-12T16:27:44.064Z,18.9
2023-03-12T16:29:00.193Z,18.9
2023-03-12T16:30:16.327Z,18.9
2023-03-12T16:31:32.466Z,18.9
2023-03-12T16:32:48.599Z,18.9
2023-03-12T16:34:04.750Z,18.9
2023-03-12T16:35:20.874Z,18.9
2023-03-12T16:36:37.021Z,18.9
2023-03-12T16:37:53.142Z,18.9
2023-03-12T16:39:09.275Z,18.9
2023-03-12T16:40:25.426Z,18.9
2023-03-12T16:41:41.561Z,18.9
2023-03-12T16:42:57.698Z,18.9
2023-03-12T16:44:13.815Z,18.9
2023-03-12T16:45:29.962Z,18.9
2023-03-12T16:46:46.101Z,18.9
2023-03-12T16:48:02.236Z,18.9
2023-03-12T16:49:18.374Z,18.9
2023-03-12T16:50:34.512Z,18.9
2023-03-12T16:51:50.644Z,18.9
2023-03-12T16:53:06.789Z,18.9
2023-03-12T16:54:22.913Z,18.9
2023-03-12T16:55:39.053Z,18.9
2023-03-12T16:56:55.189Z,18.9
2023-03-12T16:58:11.323Z,18.9
2023-03-12T16:59:27.467Z,18.9
2023-03-12T17:00:43.660Z,18.9
2023-03-12T17:01:58.889Z,18.9
2023-03-12T17:03:14.110Z,18.9
2023-03-12T17:04:30.227Z,18.9
2023-03-12T17:05:46.374Z,19
2023-03-12T17:07:02.506Z,19
2023-03-12T17:08:18.636Z,19
2023-03-12T17:09:34.789Z,19
2023-03-12T17:10:50.906Z,19
2023-03-12T17:12:07.048Z,19
2023-03-12T17:13:23.182Z,19
2023-03-12T17:14:39.307Z,19
2023-03-12T17:15:55.452Z,19
2023-03-12T17:17:11.591Z,19
2023-03-12T17:18:27.735Z,19
2023-03-12T17:19:43.860Z,19.1
2023-03-12T17:20:59.000Z,19.1
2023-03-12T17:22:16.130Z,19.1